Pertusola — IBER — position and weather

sailwx.info

Track history (hours):
 
Tides and Currents Weather Stations Pressure Air Temp Water Temp Dewpoint Dewpoint Depression Visibility Wind Speed Wind Dir Waves Ship Positions

Pertusola

Last reported at 2015-Aug-03 18:06 UTC. Time now 2015-Aug-04 15:56 UTC.
Position N 45°08' W 003°28'.

Length 145 m; draft 7 m.

Type: Ship (hazmat cat A). MMSI: 247399000.

Date/timePositionNaut miles runAvg speedWind from/ knotsBaromVisibWave heightAir tempDewpointWater temp
2015-Aug-03 18:06N 45°08' W 003°28'914.7
2015-Aug-03 17:30N 45°10' W 003°16'1414.4
2015-Aug-03 16:32N 45°14' W 002°57'1414.2
2015-Aug-03 15:33N 45°19' W 002°39'1413.9
2015-Aug-03 14:34N 45°23' W 002°20'1514.5
2015-Aug-03 13:33N 45°27' W 002°00'1514.6
2015-Aug-03 12:33N 45°32' W 001°40'1514.6
2015-Aug-03 11:34N 45°37' W 001°21'1413.7
2015-Aug-03 10:31N 45°33' W 001°01'2016.3
2015-Aug-03 09:16N 45°16' W 000°45'1014.7
2015-Aug-03 08:33N 45°06' W 000°41'8 7.9
2015-Aug-03 07:33N 44°60' W 000°33'15 0.6
2015-Aug-02 05:17N 45°13' W 000°44'2613.8
2015-Aug-02 03:24N 45°35' W 001°03'1112.9
2015-Aug-02 02:33N 45°38' W 001°19'1311.6
2015-Aug-02 01:27N 45°33' W 001°35'0 0.5
2015-Aug-02 00:30N 45°32' W 001°36'0 0.2
2015-Aug-01 23:33N 45°32' W 001°36'0 0.2
2015-Aug-01 22:33N 45°32' W 001°36'0 0.4
2015-Aug-01 21:33N 45°32' W 001°35'1 0.7
2015-Aug-01 20:33N 45°33' W 001°34'1010.1
2015-Aug-01 19:33N 45°30' W 001°48'51711.2
2015-Jul-30 21:11N 39°21' W 009°59'813.2
2015-Jul-30 20:33N 39°13' W 009°59'1313.2
2015-Jul-30 19:33N 38°60' W 009°59'1413.5
2015-Jul-30 18:33N 38°46' W 009°58'1313.4
2015-Jul-30 17:33N 38°33' W 009°55'1413.6
2015-Jul-30 16:33N 38°20' W 009°51'1413.5
2015-Jul-30 15:33N 38°06' W 009°47'2013.2
2015-Jul-30 14:04N 37°47' W 009°42'7512.7
2015-Jul-30 08:08N 36°39' W 009°03'813.1
2015-Jul-30 07:30N 36°36' W 008°53'4013.3
2015-Jul-30 04:28N 36°27' W 008°04'1213.6
2015-Jul-30 03:34N 36°23' W 007°50'1613.2
2015-Jul-30 02:21N 36°18' W 007°31'2413.1
2015-Jul-30 00:33N 36°11' W 007°03'220 7.8
2015-Jul-28 20:12N 36°10' W 002°30'913.9
2015-Jul-28 19:31N 36°10' W 002°19'1414.1
2015-Jul-28 18:34N 36°10' W 002°02'1414.0
2015-Jul-28 17:33N 36°10' W 001°44'1514.3
2015-Jul-28 16:32N 36°10' W 001°26'1414.0
2015-Jul-28 15:33N 36°10' W 001°09'1413.9
2015-Jul-28 14:33N 36°10' W 000°52'1313.0
2015-Jul-28 13:33N 36°08' W 000°36'1313.3
2015-Jul-28 12:33N 36°01' W 000°22'13 0.6
2015-Jul-27 16:19N 35°49' W 000°16'0 0.0
2015-Jul-27 15:28N 35°49' W 000°16'0 0.0
2015-Jul-27 13:20N 35°49' W 000°16'0 0.0
2015-Jul-27 12:26N 35°49' W 000°16'0 0.0
2015-Jul-26 22:10N 35°49' W 000°16'0 0.0
2015-Jul-26 21:22N 35°49' W 000°16'0 0.0
2015-Jul-26 19:28N 35°49' W 000°16'0 0.1
2015-Jul-26 18:33N 35°49' W 000°16'2 1.7
2015-Jul-26 17:20N 35°51' W 000°14'1 0.8
2015-Jul-26 16:33N 35°52' W 000°14'1 0.6
2015-Jul-26 15:33N 35°51' W 000°14'2 2.1
2015-Jul-26 14:33N 35°53' W 000°15'31414.0
2015-Jul-25 16:08N 35°56' W 006°43'915.2
2015-Jul-25 15:33N 35°58' W 006°53'4515.1
2015-Jul-25 12:33N 36°10' W 007°48'3014.9
2015-Jul-25 10:31N 36°18' W 008°24'1414.8
2015-Jul-25 09:33N 36°21' W 008°41'1514.6
2015-Jul-25 08:30N 36°25' W 008°60'2014.1
2015-Jul-25 07:05N 36°32' W 009°23'1214.4
2015-Jul-25 06:17N 36°40' W 009°33'1313.9
2015-Jul-25 05:21N 36°52' W 009°40'1214.7
2015-Jul-25 04:32N 37°03' W 009°44'1614.9
2015-Jul-25 03:30N 37°19' W 009°48'1415.1
2015-Jul-25 02:33N 37°32' W 009°52'1515.1
2015-Jul-25 01:33N 37°47' W 009°57'1515.0
2015-Jul-25 00:33N 38°02' W 010°01'1515.0
2015-Jul-24 23:33N 38°16' W 010°06'1514.8
2015-Jul-24 22:33N 38°31' W 010°10'1514.8
2015-Jul-24 21:33N 38°45' W 010°13'1515.0
2015-Jul-24 20:33N 39°00' W 010°13'  
Track history (hours):
 
Tides and Currents Weather Stations Pressure Air Temp Water Temp Dewpoint Dewpoint Depression Visibility Wind Speed Wind Dir Waves Ship Positions

Pertusola

Last reported at 2015-Aug-03 18:06 UTC. Time now 2015-Aug-04 15:56 UTC.
Position N 45°08' W 003°28'.

Length 145 m; draft 7 m.

Type: Ship (hazmat cat A). MMSI: 247399000.

Date/timePositionNaut miles runAvg speedWind from/ knotsBaromVisibWave heightAir tempDewpointWater temp
2015-Aug-03 18:06N 45°08' W 003°28'914.7
2015-Aug-03 17:30N 45°10' W 003°16'1414.4
2015-Aug-03 16:32N 45°14' W 002°57'1414.2
2015-Aug-03 15:33N 45°19' W 002°39'1413.9
2015-Aug-03 14:34N 45°23' W 002°20'1514.5
2015-Aug-03 13:33N 45°27' W 002°00'1514.6
2015-Aug-03 12:33N 45°32' W 001°40'1514.6
2015-Aug-03 11:34N 45°37' W 001°21'1413.7
2015-Aug-03 10:31N 45°33' W 001°01'2016.3
2015-Aug-03 09:16N 45°16' W 000°45'1014.7
2015-Aug-03 08:33N 45°06' W 000°41'8 7.9
2015-Aug-03 07:33N 44°60' W 000°33'15 0.6
2015-Aug-02 05:17N 45°13' W 000°44'2613.8
2015-Aug-02 03:24N 45°35' W 001°03'1112.9
2015-Aug-02 02:33N 45°38' W 001°19'1311.6
2015-Aug-02 01:27N 45°33' W 001°35'0 0.5
2015-Aug-02 00:30N 45°32' W 001°36'0 0.2
2015-Aug-01 23:33N 45°32' W 001°36'0 0.2
2015-Aug-01 22:33N 45°32' W 001°36'0 0.4
2015-Aug-01 21:33N 45°32' W 001°35'1 0.7
2015-Aug-01 20:33N 45°33' W 001°34'1010.1
2015-Aug-01 19:33N 45°30' W 001°48'51711.2
2015-Jul-30 21:11N 39°21' W 009°59'813.2
2015-Jul-30 20:33N 39°13' W 009°59'1313.2
2015-Jul-30 19:33N 38°60' W 009°59'1413.5
2015-Jul-30 18:33N 38°46' W 009°58'1313.4
2015-Jul-30 17:33N 38°33' W 009°55'1413.6
2015-Jul-30 16:33N 38°20' W 009°51'1413.5
2015-Jul-30 15:33N 38°06' W 009°47'2013.2
2015-Jul-30 14:04N 37°47' W 009°42'7512.7
2015-Jul-30 08:08N 36°39' W 009°03'813.1
2015-Jul-30 07:30N 36°36' W 008°53'4013.3
2015-Jul-30 04:28N 36°27' W 008°04'1213.6
2015-Jul-30 03:34N 36°23' W 007°50'1613.2
2015-Jul-30 02:21N 36°18' W 007°31'2413.1
2015-Jul-30 00:33N 36°11' W 007°03'220 7.8
2015-Jul-28 20:12N 36°10' W 002°30'913.9
2015-Jul-28 19:31N 36°10' W 002°19'1414.1
2015-Jul-28 18:34N 36°10' W 002°02'1414.0
2015-Jul-28 17:33N 36°10' W 001°44'1514.3
2015-Jul-28 16:32N 36°10' W 001°26'1414.0
2015-Jul-28 15:33N 36°10' W 001°09'1413.9
2015-Jul-28 14:33N 36°10' W 000°52'1313.0
2015-Jul-28 13:33N 36°08' W 000°36'1313.3
2015-Jul-28 12:33N 36°01' W 000°22'13 0.6
2015-Jul-27 16:19N 35°49' W 000°16'0 0.0
2015-Jul-27 15:28N 35°49' W 000°16'0 0.0
2015-Jul-27 13:20N 35°49' W 000°16'0 0.0
2015-Jul-27 12:26N 35°49' W 000°16'0 0.0
2015-Jul-26 22:10N 35°49' W 000°16'0 0.0
2015-Jul-26 21:22N 35°49' W 000°16'0 0.0
2015-Jul-26 19:28N 35°49' W 000°16'0 0.1
2015-Jul-26 18:33N 35°49' W 000°16'2 1.7
2015-Jul-26 17:20N 35°51' W 000°14'1 0.8
2015-Jul-26 16:33N 35°52' W 000°14'1 0.6
2015-Jul-26 15:33N 35°51' W 000°14'2 2.1
2015-Jul-26 14:33N 35°53' W 000°15'31414.0
2015-Jul-25 16:08N 35°56' W 006°43'915.2
2015-Jul-25 15:33N 35°58' W 006°53'4515.1
2015-Jul-25 12:33N 36°10' W 007°48'3014.9
2015-Jul-25 10:31N 36°18' W 008°24'1414.8
2015-Jul-25 09:33N 36°21' W 008°41'1514.6
2015-Jul-25 08:30N 36°25' W 008°60'2014.1
2015-Jul-25 07:05N 36°32' W 009°23'1214.4
2015-Jul-25 06:17N 36°40' W 009°33'1313.9
2015-Jul-25 05:21N 36°52' W 009°40'1214.7
2015-Jul-25 04:32N 37°03' W 009°44'1614.9
2015-Jul-25 03:30N 37°19' W 009°48'1415.1
2015-Jul-25 02:33N 37°32' W 009°52'1515.1
2015-Jul-25 01:33N 37°47' W 009°57'1515.0
2015-Jul-25 00:33N 38°02' W 010°01'1515.0
2015-Jul-24 23:33N 38°16' W 010°06'1514.8
2015-Jul-24 22:33N 38°31' W 010°10'1514.8
2015-Jul-24 21:33N 38°45' W 010°13'1515.0
2015-Jul-24 20:33N 39°00' W 010°13'  

Dump ship's entire track history